sensor_id;sensor_type;location;lat;lon;timestamp;temperature;humidity
4896;DHT22;2463;49.948;8.472;2023-10-08T00:00:51;16.90;99.90
4896;DHT22;2463;49.948;8.472;2023-10-08T00:03:22;16.90;99.90
4896;DHT22;2463;49.948;8.472;2023-10-08T00:05:50;16.90;99.90
4896;DHT22;2463;49.948;8.472;2023-10-08T00:08:17;17.00;99.90
4896;DHT22;2463;49.948;8.472;2023-10-08T00:10:44;16.90;99.90
4896;DHT22;2463;49.948;8.472;2023-10-08T00:13:13;16.90;99.90
4896;DHT22;2463;49.948;8.472;2023-10-08T00:15:42;16.90;99.90
4896;DHT22;2463;49.948;8.472;2023-10-08T00:18:22;16.80;99.90
4896;DHT22;2463;49.948;8.472;2023-10-08T00:20:50;16.80;99.90
4896;DHT22;2463;49.948;8.472;2023-10-08T00:23:43;16.80;99.90
4896;DHT22;2463;49.948;8.472;2023-10-08T00:26:16;16.70;99.90
4896;DHT22;2463;49.948;8.472;2023-10-08T00:28:47;16.70;99.90
4896;DHT22;2463;49.948;8.472;2023-10-08T00:31:17;16.70;99.90
4896;DHT22;2463;49.948;8.472;2023-10-08T00:33:44;16.70;99.90
4896;DHT22;2463;49.948;8.472;2023-10-08T00:36:11;16.70;99.90
4896;DHT22;2463;49.948;8.472;2023-10-08T00:38:48;16.70;99.90
4896;DHT22;2463;49.948;8.472;2023-10-08T00:41:20;16.60;99.90
4896;DHT22;2463;49.948;8.472;2023-10-08T00:43:50;16.60;99.90
4896;DHT22;2463;49.948;8.472;2023-10-08T00:46:18;16.60;99.90
4896;DHT22;2463;49.948;8.472;2023-10-08T00:48:54;16.60;99.90
4896;DHT22;2463;49.948;8.472;2023-10-08T00:51:22;16.60;99.90
4896;DHT22;2463;49.948;8.472;2023-10-08T00:54:01;16.60;99.90
4896;DHT22;2463;49.948;8.472;2023-10-08T00:56:36;16.60;99.90
4896;DHT22;2463;49.948;8.472;2023-10-08T00:59:21;16.60;99.90
4896;DHT22;2463;49.948;8.472;2023-10-08T01:01:51;16.70;99.90
4896;DHT22;2463;49.948;8.472;2023-10-08T01:04:19;16.70;99.90
4896;DHT22;2463;49.948;8.472;2023-10-08T01:06:52;16.70;99.90
4896;DHT22;2463;49.948;8.472;2023-10-08T01:09:22;16.70;99.90
4896;DHT22;2463;49.948;8.472;2023-10-08T01:14:42;16.70;99.90
4896;DHT22;2463;49.948;8.472;2023-10-08T01:17:10;16.70;99.90
4896;DHT22;2463;49.948;8.472;2023-10-08T01:19:42;16.70;99.90
4896;DHT22;2463;49.948;8.472;2023-10-08T01:22:12;16.70;99.90
4896;DHT22;2463;49.948;8.472;2023-10-08T01:24:43;17.90;99.90
4896;DHT22;2463;49.948;8.472;2023-10-08T01:27:10;16.70;99.90
4896;DHT22;2463;49.948;8.472;2023-10-08T01:29:39;16.70;99.90
4896;DHT22;2463;49.948;8.472;2023-10-08T01:32:06;16.60;99.90
4896;DHT22;2463;49.948;8.472;2023-10-08T01:34:37;16.60;99.90
4896;DHT22;2463;49.948;8.472;2023-10-08T01:37:05;16.60;99.90
4896;DHT22;2463;49.948;8.472;2023-10-08T01:39:38;16.60;99.90
4896;DHT22;2463;49.948;8.472;2023-10-08T01:42:09;16.70;99.90
4896;DHT22;2463;49.948;8.472;2023-10-08T01:44:50;16.60;99.90
4896;DHT22;2463;49.948;8.472;2023-10-08T01:47:17;16.60;99.90
4896;DHT22;2463;49.948;8.472;2023-10-08T01:49:45;16.70;99.90
4896;DHT22;2463;49.948;8.472;2023-10-08T01:52:13;16.70;99.90
4896;DHT22;2463;49.948;8.472;2023-10-08T01:54:48;16.70;99.90
4896;DHT22;2463;49.948;8.472;2023-10-08T01:57:16;16.70;99.90
4896;DHT22;2463;49.948;8.472;2023-10-08T01:59:43;16.80;99.90
4896;DHT22;2463;49.948;8.472;2023-10-08T02:02:11;16.80;99.90
4896;DHT22;2463;49.948;8.472;2023-10-08T02:04:39;16.80;99.90
4896;DHT22;2463;49.948;8.472;2023-10-08T02:07:06;16.70;99.90
4896;DHT22;2463;49.948;8.472;2023-10-08T02:09:40;16.80;99.90
4896;DHT22;2463;49.948;8.472;2023-10-08T02:12:07;16.80;99.90
4896;DHT22;2463;49.948;8.472;2023-10-08T02:14:34;16.70;99.90
4896;DHT22;2463;49.948;8.472;2023-10-08T02:17:02;16.70;99.90
4896;DHT22;2463;49.948;8.472;2023-10-08T02:19:33;16.80;99.90
4896;DHT22;2463;49.948;8.472;2023-10-08T02:22:01;16.70;99.90
4896;DHT22;2463;49.948;8.472;2023-10-08T02:24:30;16.70;99.90
4896;DHT22;2463;49.948;8.472;2023-10-08T02:26:57;16.60;99.90
4896;DHT22;2463;49.948;8.472;2023-10-08T02:29:26;16.60;99.90
4896;DHT22;2463;49.948;8.472;2023-10-08T02:31:54;16.70;99.90
4896;DHT22;2463;49.948;8.472;2023-10-08T02:34:21;16.70;99.90
4896;DHT22;2463;49.948;8.472;2023-10-08T02:36:48;16.60;99.90
4896;DHT22;2463;49.948;8.472;2023-10-08T02:39:15;16.60;99.90
4896;DHT22;2463;49.948;8.472;2023-10-08T02:41:49;16.50;99.90
4896;DHT22;2463;49.948;8.472;2023-10-08T02:44:17;16.50;99.90
4896;DHT22;2463;49.948;8.472;2023-10-08T02:46:45;16.50;99.90
4896;DHT22;2463;49.948;8.472;2023-10-08T02:49:17;16.40;99.90
4896;DHT22;2463;49.948;8.472;2023-10-08T02:51:48;16.40;99.90
4896;DHT22;2463;49.948;8.472;2023-10-08T02:54:18;16.30;99.90
4896;DHT22;2463;49.948;8.472;2023-10-08T02:56:46;16.30;99.90
4896;DHT22;2463;49.948;8.472;2023-10-08T02:59:13;16.20;99.90
4896;DHT22;2463;49.948;8.472;2023-10-08T03:01:40;16.20;99.90
4896;DHT22;2463;49.948;8.472;2023-10-08T03:04:11;16.10;99.90
4896;DHT22;2463;49.948;8.472;2023-10-08T03:06:49;16.00;99.90
4896;DHT22;2463;49.948;8.472;2023-10-08T03:09:17;16.00;99.90
4896;DHT22;2463;49.948;8.472;2023-10-08T03:11:50;16.10;99.90
4896;DHT22;2463;49.948;8.472;2023-10-08T03:14:18;16.10;99.90
4896;DHT22;2463;49.948;8.472;2023-10-08T03:16:53;16.10;99.90
4896;DHT22;2463;49.948;8.472;2023-10-08T03:19:22;16.10;99.90
4896;DHT22;2463;49.948;8.472;2023-10-08T03:21:49;16.10;99.90
4896;DHT22;2463;49.948;8.472;2023-10-08T03:24:23;16.10;99.90
4896;DHT22;2463;49.948;8.472;2023-10-08T03:26:58;16.10;99.90
4896;DHT22;2463;49.948;8.472;2023-10-08T03:29:38;16.10;99.90
4896;DHT22;2463;49.948;8.472;2023-10-08T03:32:09;16.10;99.90
4896;DHT22;2463;49.948;8.472;2023-10-08T03:34:43;16.00;99.90
4896;DHT22;2463;49.948;8.472;2023-10-08T03:37:14;16.10;99.90
4896;DHT22;2463;49.948;8.472;2023-10-08T03:39:48;16.00;99.90
4896;DHT22;2463;49.948;8.472;2023-10-08T03:42:22;16.00;99.90
4896;DHT22;2463;49.948;8.472;2023-10-08T03:44:50;16.00;99.90
4896;DHT22;2463;49.948;8.472;2023-10-08T03:47:22;16.10;99.90
4896;DHT22;2463;49.948;8.472;2023-10-08T03:49:53;16.00;99.90
4896;DHT22;2463;49.948;8.472;2023-10-08T03:52:21;16.00;99.90
4896;DHT22;2463;49.948;8.472;2023-10-08T03:54:52;16.00;99.90
4896;DHT22;2463;49.948;8.472;2023-10-08T03:57:45;16.00;99.90
4896;DHT22;2463;49.948;8.472;2023-10-08T04:00:15;16.00;99.90
4896;DHT22;2463;49.948;8.472;2023-10-08T04:02:45;16.10;99.90
4896;DHT22;2463;49.948;8.472;2023-10-08T04:05:36;16.10;99.90
4896;DHT22;2463;49.948;8.472;2023-10-08T04:08:18;16.10;99.90
4896;DHT22;2463;49.948;8.472;2023-10-08T04:10:52;16.00;99.90
4896;DHT22;2463;49.948;8.472;2023-10-08T04:13:55;16.00;99.90
4896;DHT22;2463;49.948;8.472;2023-10-08T04:16:26;15.90;99.90
4896;DHT22;2463;49.948;8.472;2023-10-08T04:18:55;15.80;99.90
4896;DHT22;2463;49.948;8.472;2023-10-08T04:21:30;15.80;99.90
4896;DHT22;2463;49.948;8.472;2023-10-08T04:24:00;15.80;99.90
4896;DHT22;2463;49.948;8.472;2023-10-08T04:26:30;15.70;99.90
4896;DHT22;2463;49.948;8.472;2023-10-08T04:29:00;15.70;99.90
4896;DHT22;2463;49.948;8.472;2023-10-08T04:31:33;15.70;99.90
4896;DHT22;2463;49.948;8.472;2023-10-08T04:34:05;15.60;99.90
4896;DHT22;2463;49.948;8.472;2023-10-08T04:36:49;15.60;99.90
4896;DHT22;2463;49.948;8.472;2023-10-08T04:39:23;15.70;99.90
4896;DHT22;2463;49.948;8.472;2023-10-08T04:41:52;15.70;99.90
4896;DHT22;2463;49.948;8.472;2023-10-08T04:44:25;15.70;99.90
4896;DHT22;2463;49.948;8.472;2023-10-08T04:46:52;15.70;99.90
4896;DHT22;2463;49.948;8.472;2023-10-08T04:49:19;15.80;99.90
4896;DHT22;2463;49.948;8.472;2023-10-08T04:51:59;15.80;99.90
4896;DHT22;2463;49.948;8.472;2023-10-08T04:54:26;15.90;99.90
4896;DHT22;2463;49.948;8.472;2023-10-08T04:57:00;16.00;99.90
4896;DHT22;2463;49.948;8.472;2023-10-08T04:59:29;16.00;99.90
4896;DHT22;2463;49.948;8.472;2023-10-08T05:02:01;16.00;99.90
4896;DHT22;2463;49.948;8.472;2023-10-08T05:04:49;16.10;99.90
4896;DHT22;2463;49.948;8.472;2023-10-08T05:07:19;16.10;99.90
4896;DHT22;2463;49.948;8.472;2023-10-08T05:10:08;16.10;99.90
4896;DHT22;2463;49.948;8.472;2023-10-08T05:12:58;16.10;99.90
4896;DHT22;2463;49.948;8.472;2023-10-08T05:15:42;16.10;99.90
4896;DHT22;2463;49.948;8.472;2023-10-08T05:18:29;16.10;99.90
4896;DHT22;2463;49.948;8.472;2023-10-08T05:21:15;16.10;99.90
4896;DHT22;2463;49.948;8.472;2023-10-08T05:24:02;16.10;99.90
4896;DHT22;2463;49.948;8.472;2023-10-08T05:26:38;16.10;99.90
4896;DHT22;2463;49.948;8.472;2023-10-08T05:29:25;16.10;99.90
4896;DHT22;2463;49.948;8.472;2023-10-08T05:32:26;16.20;99.90
4896;DHT22;2463;49.948;8.472;2023-10-08T05:35:18;16.10;99.90
4896;DHT22;2463;49.948;8.472;2023-10-08T05:38:19;16.00;99.90
4896;DHT22;2463;49.948;8.472;2023-10-08T05:41:01;16.00;99.90
4896;DHT22;2463;49.948;8.472;2023-10-08T05:43:32;16.00;99.90
4896;DHT22;2463;49.948;8.472;2023-10-08T05:46:20;15.90;99.90
4896;DHT22;2463;49.948;8.472;2023-10-08T05:48:55;15.90;99.90
4896;DHT22;2463;49.948;8.472;2023-10-08T05:51:36;15.80;99.90
4896;DHT22;2463;49.948;8.472;2023-10-08T05:54:24;15.80;99.90
4896;DHT22;2463;49.948;8.472;2023-10-08T05:57:07;15.80;99.90
4896;DHT22;2463;49.948;8.472;2023-10-08T05:59:39;15.80;99.90
4896;DHT22;2463;49.948;8.472;2023-10-08T06:02:29;15.80;99.90
4896;DHT22;2463;49.948;8.472;2023-10-08T06:05:15;15.80;99.90
4896;DHT22;2463;49.948;8.472;2023-10-08T06:07:52;15.80;99.90
4896;DHT22;2463;49.948;8.472;2023-10-08T06:10:20;15.90;99.90
4896;DHT22;2463;49.948;8.472;2023-10-08T06:13:04;15.80;99.90
4896;DHT22;2463;49.948;8.472;2023-10-08T06:15:46;15.90;99.90
4896;DHT22;2463;49.948;8.472;2023-10-08T06:18:26;16.00;99.90
4896;DHT22;2463;49.948;8.472;2023-10-08T06:20:54;16.10;99.90
4896;DHT22;2463;49.948;8.472;2023-10-08T06:23:28;16.10;99.90
4896;DHT22;2463;49.948;8.472;2023-10-08T06:25:56;16.10;99.90
4896;DHT22;2463;49.948;8.472;2023-10-08T06:28:44;16.20;99.90
4896;DHT22;2463;49.948;8.472;2023-10-08T06:31:11;16.20;99.90
4896;DHT22;2463;49.948;8.472;2023-10-08T06:33:39;16.20;99.90
4896;DHT22;2463;49.948;8.472;2023-10-08T06:36:08;16.30;99.90
4896;DHT22;2463;49.948;8.472;2023-10-08T06:38:46;16.30;99.90
4896;DHT22;2463;49.948;8.472;2023-10-08T06:41:16;16.30;99.90
4896;DHT22;2463;49.948;8.472;2023-10-08T06:44:06;16.30;99.90
4896;DHT22;2463;49.948;8.472;2023-10-08T06:46:33;16.30;99.90
4896;DHT22;2463;49.948;8.472;2023-10-08T06:49:03;16.30;99.90
4896;DHT22;2463;49.948;8.472;2023-10-08T06:51:31;16.40;99.90
4896;DHT22;2463;49.948;8.472;2023-10-08T06:54:00;16.40;99.90
4896;DHT22;2463;49.948;8.472;2023-10-08T06:56:29;16.50;99.90
4896;DHT22;2463;49.948;8.472;2023-10-08T06:58:58;16.60;99.90
4896;DHT22;2463;49.948;8.472;2023-10-08T07:01:26;16.60;99.90
4896;DHT22;2463;49.948;8.472;2023-10-08T07:03:55;16.60;99.90
4896;DHT22;2463;49.948;8.472;2023-10-08T07:06:30;16.60;99.90
4896;DHT22;2463;49.948;8.472;2023-10-08T07:09:04;16.60;99.90
4896;DHT22;2463;49.948;8.472;2023-10-08T07:11:33;16.60;99.90
4896;DHT22;2463;49.948;8.472;2023-10-08T07:14:05;16.50;99.90
4896;DHT22;2463;49.948;8.472;2023-10-08T07:16:32;16.60;99.90
4896;DHT22;2463;49.948;8.472;2023-10-08T07:18:59;16.70;99.90
4896;DHT22;2463;49.948;8.472;2023-10-08T07:21:32;16.70;99.90
4896;DHT22;2463;49.948;8.472;2023-10-08T07:24:15;16.80;99.90
4896;DHT22;2463;49.948;8.472;2023-10-08T07:26:43;16.90;99.90
4896;DHT22;2463;49.948;8.472;2023-10-08T07:29:14;17.00;99.90
4896;DHT22;2463;49.948;8.472;2023-10-08T07:31:45;17.10;99.90
4896;DHT22;2463;49.948;8.472;2023-10-08T07:34:16;17.20;99.90
4896;DHT22;2463;49.948;8.472;2023-10-08T07:36:48;17.30;99.90
4896;DHT22;2463;49.948;8.472;2023-10-08T07:39:16;17.30;99.90
4896;DHT22;2463;49.948;8.472;2023-10-08T07:42:04;17.40;99.90
4896;DHT22;2463;49.948;8.472;2023-10-08T07:44:35;17.40;99.90
4896;DHT22;2463;49.948;8.472;2023-10-08T07:47:08;17.50;99.90
4896;DHT22;2463;49.948;8.472;2023-10-08T07:49:40;17.50;99.90
4896;DHT22;2463;49.948;8.472;2023-10-08T07:52:09;17.50;99.90
4896;DHT22;2463;49.948;8.472;2023-10-08T07:54:42;17.50;99.90
4896;DHT22;2463;49.948;8.472;2023-10-08T07:57:11;17.60;99.90
4896;DHT22;2463;49.948;8.472;2023-10-08T07:59:40;17.60;99.90
4896;DHT22;2463;49.948;8.472;2023-10-08T08:02:15;17.70;99.90
4896;DHT22;2463;49.948;8.472;2023-10-08T08:04:44;17.70;99.90
4896;DHT22;2463;49.948;8.472;2023-10-08T08:07:17;17.70;99.90
4896;DHT22;2463;49.948;8.472;2023-10-08T08:09:46;17.80;99.90
4896;DHT22;2463;49.948;8.472;2023-10-08T08:12:26;17.80;99.90
4896;DHT22;2463;49.948;8.472;2023-10-08T08:14:55;17.80;99.90
4896;DHT22;2463;49.948;8.472;2023-10-08T08:17:21;17.80;99.90
4896;DHT22;2463;49.948;8.472;2023-10-08T08:19:52;17.80;99.90
4896;DHT22;2463;49.948;8.472;2023-10-08T08:22:20;17.90;99.90
4896;DHT22;2463;49.948;8.472;2023-10-08T08:24:50;18.00;99.90
4896;DHT22;2463;49.948;8.472;2023-10-08T08:27:23;17.90;99.90
4896;DHT22;2463;49.948;8.472;2023-10-08T08:30:00;18.00;99.90
4896;DHT22;2463;49.948;8.472;2023-10-08T08:32:44;18.20;99.90
4896;DHT22;2463;49.948;8.472;2023-10-08T08:35:12;18.20;99.90
4896;DHT22;2463;49.948;8.472;2023-10-08T08:37:43;18.40;99.90
4896;DHT22;2463;49.948;8.472;2023-10-08T08:40:13;18.60;99.90
4896;DHT22;2463;49.948;8.472;2023-10-08T08:42:50;18.70;99.90
4896;DHT22;2463;49.948;8.472;2023-10-08T08:45:22;18.70;99.90
4896;DHT22;2463;49.948;8.472;2023-10-08T08:47:52;18.70;99.90
4896;DHT22;2463;49.948;8.472;2023-10-08T08:50:19;18.80;99.90
4896;DHT22;2463;49.948;8.472;2023-10-08T08:52:48;18.80;99.90
4896;DHT22;2463;49.948;8.472;2023-10-08T08:55:15;18.80;99.90
4896;DHT22;2463;49.948;8.472;2023-10-08T08:57:47;18.80;99.90
4896;DHT22;2463;49.948;8.472;2023-10-08T09:00:15;18.80;99.90
4896;DHT22;2463;49.948;8.472;2023-10-08T09:02:48;18.80;99.90
4896;DHT22;2463;49.948;8.472;2023-10-08T09:05:16;18.80;99.90
4896;DHT22;2463;49.948;8.472;2023-10-08T09:07:56;18.90;99.90
4896;DHT22;2463;49.948;8.472;2023-10-08T09:10:24;19.10;99.90
4896;DHT22;2463;49.948;8.472;2023-10-08T09:12:54;19.20;99.90
4896;DHT22;2463;49.948;8.472;2023-10-08T09:15:25;19.30;99.90
4896;DHT22;2463;49.948;8.472;2023-10-08T09:17:56;20.70;99.90
4896;DHT22;2463;49.948;8.472;2023-10-08T09:20:23;19.70;99.90
4896;DHT22;2463;49.948;8.472;2023-10-08T09:25:39;20.10;99.90
4896;DHT22;2463;49.948;8.472;2023-10-08T09:28:09;20.20;99.90
4896;DHT22;2463;49.948;8.472;2023-10-08T09:30:40;20.30;99.90
4896;DHT22;2463;49.948;8.472;2023-10-08T09:33:12;20.40;99.90
4896;DHT22;2463;49.948;8.472;2023-10-08T09:35:39;20.40;99.90
4896;DHT22;2463;49.948;8.472;2023-10-08T09:38:07;20.50;99.90
4896;DHT22;2463;49.948;8.472;2023-10-08T09:40:38;20.50;99.90
4896;DHT22;2463;49.948;8.472;2023-10-08T09:43:10;20.70;99.90
4896;DHT22;2463;49.948;8.472;2023-10-08T09:45:38;20.80;99.90
4896;DHT22;2463;49.948;8.472;2023-10-08T09:48:10;20.90;99.90
4896;DHT22;2463;49.948;8.472;2023-10-08T09:50:40;21.10;99.90
4896;DHT22;2463;49.948;8.472;2023-10-08T09:53:11;21.20;99.90
4896;DHT22;2463;49.948;8.472;2023-10-08T09:55:55;21.20;99.90
4896;DHT22;2463;49.948;8.472;2023-10-08T09:58:22;21.30;99.90
4896;DHT22;2463;49.948;8.472;2023-10-08T10:00:53;21.30;99.90
4896;DHT22;2463;49.948;8.472;2023-10-08T10:03:25;21.30;99.90
4896;DHT22;2463;49.948;8.472;2023-10-08T10:05:53;21.20;99.90
4896;DHT22;2463;49.948;8.472;2023-10-08T10:08:27;21.40;99.90
4896;DHT22;2463;49.948;8.472;2023-10-08T10:11:00;21.40;99.90
4896;DHT22;2463;49.948;8.472;2023-10-08T10:13:41;21.50;99.90
4896;DHT22;2463;49.948;8.472;2023-10-08T10:16:13;21.60;99.90
4896;DHT22;2463;49.948;8.472;2023-10-08T10:18:44;21.60;99.90
4896;DHT22;2463;49.948;8.472;2023-10-08T10:23:43;21.70;99.90
4896;DHT22;2463;49.948;8.472;2023-10-08T10:31:50;22.10;99.90
4896;DHT22;2463;49.948;8.472;2023-10-08T10:34:25;22.30;99.90
4896;DHT22;2463;49.948;8.472;2023-10-08T10:36:57;22.50;99.90
4896;DHT22;2463;49.948;8.472;2023-10-08T10:39:29;22.70;99.90
4896;DHT22;2463;49.948;8.472;2023-10-08T10:42:00;22.70;99.90
4896;DHT22;2463;49.948;8.472;2023-10-08T10:44:29;22.70;99.90
4896;DHT22;2463;49.948;8.472;2023-10-08T10:46:57;22.80;99.90
4896;DHT22;2463;49.948;8.472;2023-10-08T10:49:44;22.90;99.90
4896;DHT22;2463;49.948;8.472;2023-10-08T10:52:25;23.20;99.90
4896;DHT22;2463;49.948;8.472;2023-10-08T10:55:03;23.50;99.90
4896;DHT22;2463;49.948;8.472;2023-10-08T10:57:52;23.60;99.90
4896;DHT22;2463;49.948;8.472;2023-10-08T11:00:42;23.90;99.90
4896;DHT22;2463;49.948;8.472;2023-10-08T11:03:09;24.20;99.90
4896;DHT22;2463;49.948;8.472;2023-10-08T11:05:57;24.40;99.90
4896;DHT22;2463;49.948;8.472;2023-10-08T11:08:27;24.50;99.90
4896;DHT22;2463;49.948;8.472;2023-10-08T11:11:01;24.70;99.90
4896;DHT22;2463;49.948;8.472;2023-10-08T11:13:34;25.00;99.90
4896;DHT22;2463;49.948;8.472;2023-10-08T11:16:05;25.20;99.90
4896;DHT22;2463;49.948;8.472;2023-10-08T11:18:33;25.30;99.90
4896;DHT22;2463;49.948;8.472;2023-10-08T11:21:08;25.30;99.90
4896;DHT22;2463;49.948;8.472;2023-10-08T11:23:45;25.40;99.90
4896;DHT22;2463;49.948;8.472;2023-10-08T11:26:24;25.60;99.90
4896;DHT22;2463;49.948;8.472;2023-10-08T11:29:00;25.90;99.90
4896;DHT22;2463;49.948;8.472;2023-10-08T11:31:27;26.20;99.90
4896;DHT22;2463;49.948;8.472;2023-10-08T11:34:03;26.30;99.90
4896;DHT22;2463;49.948;8.472;2023-10-08T11:36:37;26.40;99.90
4896;DHT22;2463;49.948;8.472;2023-10-08T11:39:16;26.50;99.90
4896;DHT22;2463;49.948;8.472;2023-10-08T11:42:02;26.60;99.90
4896;DHT22;2463;49.948;8.472;2023-10-08T11:44:52;26.70;99.90
4896;DHT22;2463;49.948;8.472;2023-10-08T11:47:19;26.70;99.90
4896;DHT22;2463;49.948;8.472;2023-10-08T11:49:48;26.70;99.90
4896;DHT22;2463;49.948;8.472;2023-10-08T11:52:20;26.70;99.90
4896;DHT22;2463;49.948;8.472;2023-10-08T11:54:49;26.70;99.90
4896;DHT22;2463;49.948;8.472;2023-10-08T11:57:19;26.80;99.90
4896;DHT22;2463;49.948;8.472;2023-10-08T11:59:49;26.80;99.90
4896;DHT22;2463;49.948;8.472;2023-10-08T12:02:19;27.00;99.90
4896;DHT22;2463;49.948;8.472;2023-10-08T12:04:47;27.20;99.90
4896;DHT22;2463;49.948;8.472;2023-10-08T12:07:14;27.30;99.90
4896;DHT22;2463;49.948;8.472;2023-10-08T12:09:44;27.50;99.90
4896;DHT22;2463;49.948;8.472;2023-10-08T12:12:15;27.70;99.90
4896;DHT22;2463;49.948;8.472;2023-10-08T12:14:42;27.70;99.90
4896;DHT22;2463;49.948;8.472;2023-10-08T12:17:12;27.90;99.90
4896;DHT22;2463;49.948;8.472;2023-10-08T12:19:38;28.00;99.90
4896;DHT22;2463;49.948;8.472;2023-10-08T12:22:09;28.00;99.90
4896;DHT22;2463;49.948;8.472;2023-10-08T12:24:40;28.20;99.90
4896;DHT22;2463;49.948;8.472;2023-10-08T12:27:09;28.50;99.90
4896;DHT22;2463;49.948;8.472;2023-10-08T12:29:38;28.50;99.90
4896;DHT22;2463;49.948;8.472;2023-10-08T12:32:05;28.70;99.90
4896;DHT22;2463;49.948;8.472;2023-10-08T12:34:43;28.80;99.90
4896;DHT22;2463;49.948;8.472;2023-10-08T12:37:10;29.00;99.90
4896;DHT22;2463;49.948;8.472;2023-10-08T12:39:40;29.00;99.90
4896;DHT22;2463;49.948;8.472;2023-10-08T12:42:23;29.10;99.90
4896;DHT22;2463;49.948;8.472;2023-10-08T12:44:52;29.20;99.90
4896;DHT22;2463;49.948;8.472;2023-10-08T12:47:19;29.30;99.90
4896;DHT22;2463;49.948;8.472;2023-10-08T12:49:46;29.40;99.90
4896;DHT22;2463;49.948;8.472;2023-10-08T12:52:13;29.50;99.90
4896;DHT22;2463;49.948;8.472;2023-10-08T12:54:41;29.70;99.90
4896;DHT22;2463;49.948;8.472;2023-10-08T12:57:12;28.70;99.90
4896;DHT22;2463;49.948;8.472;2023-10-08T12:59:42;29.80;99.90
4896;DHT22;2463;49.948;8.472;2023-10-08T13:02:15;29.90;99.90
4896;DHT22;2463;49.948;8.472;2023-10-08T13:04:43;29.80;99.90
4896;DHT22;2463;49.948;8.472;2023-10-08T13:07:12;29.80;99.90
4896;DHT22;2463;49.948;8.472;2023-10-08T13:09:40;29.80;99.90
4896;DHT22;2463;49.948;8.472;2023-10-08T13:12:09;30.00;99.90
4896;DHT22;2463;49.948;8.472;2023-10-08T13:14:37;30.10;99.90
4896;DHT22;2463;49.948;8.472;2023-10-08T13:17:03;30.20;99.90
4896;DHT22;2463;49.948;8.472;2023-10-08T13:19:30;30.20;99.90
4896;DHT22;2463;49.948;8.472;2023-10-08T13:22:01;30.30;99.90
4896;DHT22;2463;49.948;8.472;2023-10-08T13:24:27;30.30;99.90
4896;DHT22;2463;49.948;8.472;2023-10-08T13:26:55;30.20;99.90
4896;DHT22;2463;49.948;8.472;2023-10-08T13:29:25;30.20;99.90
4896;DHT22;2463;49.948;8.472;2023-10-08T13:31:59;30.10;99.90
4896;DHT22;2463;49.948;8.472;2023-10-08T13:34:27;30.00;99.90
4896;DHT22;2463;49.948;8.472;2023-10-08T13:36:54;30.00;99.90
4896;DHT22;2463;49.948;8.472;2023-10-08T13:39:22;29.80;99.90
4896;DHT22;2463;49.948;8.472;2023-10-08T13:41:49;29.70;99.90
4896;DHT22;2463;49.948;8.472;2023-10-08T13:44:18;29.70;99.90
4896;DHT22;2463;49.948;8.472;2023-10-08T13:46:53;29.60;99.90
4896;DHT22;2463;49.948;8.472;2023-10-08T13:49:24;29.50;99.90
4896;DHT22;2463;49.948;8.472;2023-10-08T13:51:53;29.30;99.90
4896;DHT22;2463;49.948;8.472;2023-10-08T13:54:23;29.20;99.90
4896;DHT22;2463;49.948;8.472;2023-10-08T13:56:56;28.90;99.90
4896;DHT22;2463;49.948;8.472;2023-10-08T13:59:25;28.90;99.90
4896;DHT22;2463;49.948;8.472;2023-10-08T14:01:52;28.80;99.90
4896;DHT22;2463;49.948;8.472;2023-10-08T14:04:21;28.60;99.90
4896;DHT22;2463;49.948;8.472;2023-10-08T14:06:53;28.40;99.90
4896;DHT22;2463;49.948;8.472;2023-10-08T14:09:22;28.20;99.90
4896;DHT22;2463;49.948;8.472;2023-10-08T14:11:58;28.00;99.90
4896;DHT22;2463;49.948;8.472;2023-10-08T14:14:26;27.80;99.90
4896;DHT22;2463;49.948;8.472;2023-10-08T14:16:58;27.60;99.90
4896;DHT22;2463;49.948;8.472;2023-10-08T14:19:30;27.40;99.90
4896;DHT22;2463;49.948;8.472;2023-10-08T14:22:06;27.10;99.90
4896;DHT22;2463;49.948;8.472;2023-10-08T14:24:35;26.50;99.90
4896;DHT22;2463;49.948;8.472;2023-10-08T14:27:05;26.70;99.90
4896;DHT22;2463;49.948;8.472;2023-10-08T14:29:41;26.30;99.90
4896;DHT22;2463;49.948;8.472;2023-10-08T14:32:13;26.20;99.90
4896;DHT22;2463;49.948;8.472;2023-10-08T14:34:42;26.10;99.90
4896;DHT22;2463;49.948;8.472;2023-10-08T14:37:21;26.10;99.90
4896;DHT22;2463;49.948;8.472;2023-10-08T14:40:06;26.00;99.90
4896;DHT22;2463;49.948;8.472;2023-10-08T14:42:52;26.00;99.90
4896;DHT22;2463;49.948;8.472;2023-10-08T14:45:27;26.00;99.90
4896;DHT22;2463;49.948;8.472;2023-10-08T14:47:58;26.10;99.90
4896;DHT22;2463;49.948;8.472;2023-10-08T14:50:26;26.10;99.90
4896;DHT22;2463;49.948;8.472;2023-10-08T14:53:00;26.30;99.90
4896;DHT22;2463;49.948;8.472;2023-10-08T14:55:28;26.40;99.90
4896;DHT22;2463;49.948;8.472;2023-10-08T14:57:56;26.40;99.90
4896;DHT22;2463;49.948;8.472;2023-10-08T15:00:23;26.50;99.90
4896;DHT22;2463;49.948;8.472;2023-10-08T15:02:54;26.50;99.90
4896;DHT22;2463;49.948;8.472;2023-10-08T15:05:22;26.60;99.90
4896;DHT22;2463;49.948;8.472;2023-10-08T15:07:50;26.70;99.90
4896;DHT22;2463;49.948;8.472;2023-10-08T15:10:18;26.60;99.90
4896;DHT22;2463;49.948;8.472;2023-10-08T15:12:45;26.60;99.90
4896;DHT22;2463;49.948;8.472;2023-10-08T15:15:12;26.50;99.90
4896;DHT22;2463;49.948;8.472;2023-10-08T15:17:44;26.40;99.90
4896;DHT22;2463;49.948;8.472;2023-10-08T15:20:12;26.40;99.90
4896;DHT22;2463;49.948;8.472;2023-10-08T15:22:44;26.30;99.90
4896;DHT22;2463;49.948;8.472;2023-10-08T15:25:15;26.20;99.90
4896;DHT22;2463;49.948;8.472;2023-10-08T15:27:44;26.10;99.90
4896;DHT22;2463;49.948;8.472;2023-10-08T15:30:15;26.00;99.90
4896;DHT22;2463;49.948;8.472;2023-10-08T15:32:43;25.90;99.90
4896;DHT22;2463;49.948;8.472;2023-10-08T15:35:11;25.80;99.90
4896;DHT22;2463;49.948;8.472;2023-10-08T15:37:41;25.70;99.90
4896;DHT22;2463;49.948;8.472;2023-10-08T15:40:09;25.60;99.90
4896;DHT22;2463;49.948;8.472;2023-10-08T15:42:49;25.40;99.90
4896;DHT22;2463;49.948;8.472;2023-10-08T15:45:19;25.30;99.90
4896;DHT22;2463;49.948;8.472;2023-10-08T15:47:47;25.10;99.90
4896;DHT22;2463;49.948;8.472;2023-10-08T15:50:16;25.00;99.90
4896;DHT22;2463;49.948;8.472;2023-10-08T15:52:50;24.90;99.90
4896;DHT22;2463;49.948;8.472;2023-10-08T15:55:17;24.70;99.90
4896;DHT22;2463;49.948;8.472;2023-10-08T15:57:45;24.60;99.90
4896;DHT22;2463;49.948;8.472;2023-10-08T16:00:12;24.60;99.90
4896;DHT22;2463;49.948;8.472;2023-10-08T16:02:41;24.50;99.90
4896;DHT22;2463;49.948;8.472;2023-10-08T16:05:09;24.40;99.90
4896;DHT22;2463;49.948;8.472;2023-10-08T16:07:36;24.30;99.90
4896;DHT22;2463;49.948;8.472;2023-10-08T16:10:03;24.20;99.90
4896;DHT22;2463;49.948;8.472;2023-10-08T16:12:30;24.10;99.90
4896;DHT22;2463;49.948;8.472;2023-10-08T16:14:57;24.00;99.90
4896;DHT22;2463;49.948;8.472;2023-10-08T16:17:24;23.80;99.90
4896;DHT22;2463;49.948;8.472;2023-10-08T16:19:51;23.70;99.90
4896;DHT22;2463;49.948;8.472;2023-10-08T16:22:18;23.60;99.90
4896;DHT22;2463;49.948;8.472;2023-10-08T16:24:44;23.50;99.90
4896;DHT22;2463;49.948;8.472;2023-10-08T16:27:12;23.40;99.90
4896;DHT22;2463;49.948;8.472;2023-10-08T16:29:39;23.30;99.90
4896;DHT22;2463;49.948;8.472;2023-10-08T16:32:06;23.10;99.90
4896;DHT22;2463;49.948;8.472;2023-10-08T16:34:33;23.10;99.90
4896;DHT22;2463;49.948;8.472;2023-10-08T16:37:03;23.00;99.90
4896;DHT22;2463;49.948;8.472;2023-10-08T16:39:30;22.70;99.90
4896;DHT22;2463;49.948;8.472;2023-10-08T16:41:57;22.70;99.90
4896;DHT22;2463;49.948;8.472;2023-10-08T16:44:24;22.70;99.90
4896;DHT22;2463;49.948;8.472;2023-10-08T16:46:51;22.50;99.90